Larkspur, Colorado
Current Conditions -  °F | °C
As of 5:54 PM on Monday 22 Dec 2014 (Local Time) from KMNH Reporting Station
Overcast Overcast  
Wind Chill: 11°   Ceiling: 5000
Heat Index: 23°   Visibility: 10mi
Dew Point: 19°   Wind: 13mph
Humidity: 86%   Direction: 350°N
Pressure: 29.73"   Gusts: 17mph
Location:  39.23°N, 104.89°W
Report Text: KMNH 230054Z AUTO 35011G15KT 10SM SCT033 SCT039 OVC050 M05/M07 A2973 RMK AO2
Loading
Personal Weather Stations






























Interactive Weather Map New forecast layout! Learn more

10-Day Weather Forecast

Advertisements
Track Severe Weather on mobile